Time;durP1;ratioP1;P1;durP2;ratioP2;P2;SDS_P1;SDS_P2;PMS_P1;PMS_P2;Temp;Humidity;BMP_temperature;BMP_pressure;BME280_temperature;BME280_humidity;BME280_pressure;Samples;Min_cycle;Max_cycle;Signal;HPM_P1;HPM_P2
2022/03/14 00:00:58;;;;;;;1.75;1.58;;;;;;;10.77;65.49;101565.88;4997279;28;20030;-71
2022/03/14 00:03:25;;;;;;;2.47;1.77;;;;;;;10.76;65.62;101564.19;4989539;28;20046;-72
2022/03/14 00:05:50;;;;;;;1.90;1.70;;;;;;;10.73;65.66;101564.38;4989457;28;20107;-71
2022/03/14 00:08:15;;;;;;;2.00;1.80;;;;;;;10.71;66.35;101566.28;4987594;28;20022;-71
2022/03/14 00:10:42;;;;;;;2.55;1.85;;;;;;;10.70;66.04;101572.47;5011265;28;20027;-73
2022/03/14 00:13:09;;;;;;;2.20;1.80;;;;;;;10.67;66.29;101569.09;4999732;28;20085;-73
2022/03/14 00:15:34;;;;;;;2.05;1.83;;;;;;;10.67;66.21;101581.41;4988524;28;20450;-73
2022/03/14 00:18:01;;;;;;;2.75;1.95;;;;;;;10.66;66.49;101582.34;4989250;28;20034;-73
2022/03/14 00:20:27;;;;;;;2.35;1.92;;;;;;;10.65;66.44;101584.13;4989005;28;20555;-71
2022/03/14 00:22:53;;;;;;;3.15;2.22;;;;;;;10.64;66.87;101592.13;4992800;28;20037;-70
2022/03/14 00:25:19;;;;;;;2.65;1.90;;;;;;;10.62;66.99;101589.59;4993466;28;20108;-71
2022/03/14 00:27:44;;;;;;;3.15;2.30;;;;;;;10.60;67.09;101591.47;4991040;28;20035;-71
2022/03/14 00:30:11;;;;;;;2.83;2.08;;;;;;;10.57;67.47;101603.97;4988120;28;20073;-71
2022/03/14 00:32:38;;;;;;;2.42;2.22;;;;;;;10.55;67.02;101598.81;4988968;28;20030;-71
2022/03/14 00:35:04;;;;;;;2.45;2.03;;;;;;;10.55;67.00;101601.44;4988338;28;20456;-71
2022/03/14 00:37:30;;;;;;;3.22;2.30;;;;;;;10.55;67.38;101609.34;4988374;28;20052;-71
2022/03/14 00:39:56;;;;;;;3.00;2.50;;;;;;;10.55;67.45;101611.13;4987462;28;20109;-70
2022/03/14 00:42:22;;;;;;;3.38;2.42;;;;;;;10.52;67.52;101609.53;4989370;28;20554;-70
2022/03/14 00:44:48;;;;;;;2.63;2.35;;;;;;;10.51;67.71;101610.47;5000412;28;20489;-71
2022/03/14 00:47:14;;;;;;;3.15;2.45;;;;;;;10.50;67.41;101616.69;5006892;28;20556;-70
2022/03/14 00:49:39;;;;;;;3.05;2.60;;;;;;;10.50;67.96;101615.84;4993835;28;20030;-71
2022/03/14 00:52:05;;;;;;;2.97;2.53;;;;;;;10.49;68.43;101625.50;4992663;28;20038;-71
2022/03/14 00:54:30;;;;;;;3.42;2.60;;;;;;;10.47;69.46;101622.13;4998275;28;20057;-71
2022/03/14 00:56:56;;;;;;;2.85;2.50;;;;;;;10.44;69.86;101627.56;4993014;28;20140;-71
2022/03/14 00:59:24;;;;;;;3.03;2.50;;;;;;;10.43;69.69;101625.03;4991883;28;20019;-71
2022/03/14 01:01:49;;;;;;;3.28;2.78;;;;;;;10.38;70.36;101627.91;4992700;28;20035;-70
2022/03/14 01:04:15;;;;;;;3.72;2.60;;;;;;;10.36;70.29;101624.53;4992072;28;20395;-71
2022/03/14 01:06:40;;;;;;;3.08;2.60;;;;;;;10.36;70.51;101637.69;4991961;28;20100;-70
2022/03/14 01:09:07;;;;;;;3.00;2.70;;;;;;;10.34;70.51;101636.94;4997155;28;20462;-71
2022/03/14 01:11:33;;;;;;;3.15;2.85;;;;;;;10.33;70.44;101636.09;5010038;28;20031;-71
2022/03/14 01:13:58;;;;;;;2.83;2.53;;;;;;;10.34;69.95;101642.19;4992355;28;20041;-71
2022/03/14 01:16:24;;;;;;;3.08;2.78;;;;;;;10.31;70.40;101643.22;4998000;28;20109;-70
2022/03/14 01:18:49;;;;;;;3.45;2.70;;;;;;;10.29;70.37;101639.00;4990995;28;20018;-70
2022/03/14 01:21:14;;;;;;;3.80;2.72;;;;;;;10.28;70.66;101655.72;4997188;28;20045;-70
2022/03/14 01:23:40;;;;;;;3.97;2.88;;;;;;;10.27;70.94;101651.41;4991573;28;20033;-71
2022/03/14 01:26:08;;;;;;;4.10;2.95;;;;;;;10.24;70.67;101656.84;4990580;28;20042;-71
2022/03/14 01:28:33;;;;;;;4.38;3.20;;;;;;;10.25;70.53;101655.91;4991674;28;20030;-71
2022/03/14 01:30:59;;;;;;;5.25;3.03;;;;;;;10.23;70.73;101663.91;4991210;28;20032;-71
2022/03/14 01:33:24;;;;;;;4.65;3.00;;;;;;;10.26;70.18;101665.50;4990844;28;20026;-71
2022/03/14 01:35:49;;;;;;;3.30;2.97;;;;;;;10.24;70.85;101672.63;4991117;28;20046;-71
2022/03/14 01:38:15;;;;;;;3.40;3.03;;;;;;;10.23;71.24;101670.94;4991069;28;20465;-71
2022/03/14 01:40:40;;;;;;;3.67;3.38;;;;;;;10.23;70.65;101671.78;5010859;28;20084;-71
2022/03/14 01:43:05;;;;;;;3.78;2.90;;;;;;;10.24;70.82;101670.00;5008376;28;20025;-71
2022/03/14 01:45:31;;;;;;;4.13;2.92;;;;;;;10.22;71.13;101664.84;4998223;28;20037;-71
2022/03/14 01:47:56;;;;;;;4.43;3.20;;;;;;;10.22;70.80;101677.13;4990381;28;20462;-71
2022/03/14 01:50:22;;;;;;;4.72;3.35;;;;;;;10.19;71.15;101664.97;4991121;28;20064;-71
2022/03/14 01:52:47;;;;;;;3.53;2.95;;;;;;;10.19;71.15;101675.50;4991279;28;20536;-71
2022/03/14 01:55:14;;;;;;;4.25;3.38;;;;;;;10.18;71.17;101678.22;4990970;28;20156;-71
2022/03/14 01:57:40;;;;;;;3.35;3.05;;;;;;;10.17;71.29;101681.78;4991433;28;20100;-71
2022/03/14 02:00:08;;;;;;;3.80;3.22;;;;;;;10.16;71.03;101685.34;4991182;28;20034;-72
2022/03/14 02:02:34;;;;;;;3.60;3.25;;;;;;;10.17;71.41;101702.84;4989950;28;20030;-71
2022/03/14 02:04:59;;;;;;;3.60;2.97;;;;;;;10.15;71.60;101702.06;4991526;28;20034;-72
2022/03/14 02:07:25;;;;;;;3.67;3.28;;;;;;;10.14;71.34;101690.72;4991187;28;20057;-72
2022/03/14 02:09:51;;;;;;;3.95;3.22;;;;;;;10.14;71.48;101697.75;4999369;28;20052;-72
2022/03/14 02:12:16;;;;;;;3.90;3.50;;;;;;;10.13;71.67;101690.81;5026889;28;20034;-72
2022/03/14 02:14:42;;;;;;;4.28;3.38;;;;;;;10.11;71.88;101698.78;4990690;28;20076;-72
2022/03/14 02:17:08;;;;;;;4.53;3.60;;;;;;;10.10;72.09;101701.50;4991052;28;20391;-72
2022/03/14 02:19:34;;;;;;;4.85;3.58;;;;;;;10.07;72.54;101709.56;4991153;28;20053;-72
2022/03/14 02:22:03;;;;;;;3.92;3.53;;;;;;;10.05;72.56;101715.75;4996903;28;20108;-72
2022/03/14 02:24:29;;;;;;;4.60;4.10;;;;;;;10.05;72.63;101715.75;4990394;28;20029;-71
2022/03/14 02:26:55;;;;;;;3.97;3.60;;;;;;;10.05;72.87;101721.03;4990501;28;20030;-72
2022/03/14 02:29:20;;;;;;;4.80;4.30;;;;;;;10.03;72.47;101717.63;4989582;28;20277;-72
2022/03/14 02:31:46;;;;;;;3.90;3.53;;;;;;;10.02;72.97;101715.94;4990031;28;20061;-72
2022/03/14 02:34:12;;;;;;;4.32;3.60;;;;;;;10.01;73.06;101716.88;4990055;28;20027;-71
2022/03/14 02:36:39;;;;;;;5.35;3.75;;;;;;;9.99;73.02;101717.88;4997324;28;20081;-70
2022/03/14 02:39:06;;;;;;;4.18;3.42;;;;;;;9.99;72.90;101721.34;4988999;28;20037;-72
2022/03/14 02:41:32;;;;;;;3.90;3.50;;;;;;;9.97;73.12;101723.22;4990216;28;20050;-72
2022/03/14 02:43:57;;;;;;;4.18;3.75;;;;;;;9.97;73.11;101725.84;4997768;28;20027;-72
2022/03/14 02:46:26;;;;;;;4.88;3.75;;;;;;;9.97;73.50;101728.47;4992518;28;20026;-72
2022/03/14 02:48:51;;;;;;;4.00;3.60;;;;;;;9.95;73.02;101722.47;4990449;28;20045;-71
2022/03/14 02:51:17;;;;;;;4.00;3.60;;;;;;;9.95;72.93;101734.75;4988407;28;20030;-72
2022/03/14 02:53:42;;;;;;;4.13;3.72;;;;;;;9.96;72.74;101737.31;4992091;28;20026;-71
2022/03/14 02:56:07;;;;;;;4.03;3.63;;;;;;;9.92;72.87;101743.66;4990540;28;20033;-71
2022/03/14 02:58:33;;;;;;;4.15;3.67;;;;;;;9.91;73.17;101749.00;4988678;28;20088;-71
2022/03/14 03:01:00;;;;;;;4.03;3.60;;;;;;;9.88;73.39;101750.03;4991976;28;20114;-71
2022/03/14 03:03:26;;;;;;;4.88;3.97;;;;;;;9.87;73.16;101758.00;4997868;28;20105;-71
2022/03/14 03:05:52;;;;;;;5.97;3.53;;;;;;;9.84;73.34;101761.66;4991143;28;20026;-71
2022/03/14 03:08:18;;;;;;;4.10;3.42;;;;;;;9.86;73.18;101769.47;4993636;28;20014;-71
2022/03/14 03:10:44;;;;;;;3.75;3.33;;;;;;;9.86;73.44;101772.94;5005218;28;20207;-72
2022/03/14 03:13:12;;;;;;;3.85;3.40;;;;;;;9.83;73.77;101780.16;4996830;28;20061;-72
2022/03/14 03:15:37;;;;;;;3.83;3.42;;;;;;;9.82;73.44;101781.94;4989993;28;20026;-72
2022/03/14 03:18:03;;;;;;;3.70;3.25;;;;;;;9.80;74.10;101788.22;4989414;28;20025;-72
2022/03/14 03:20:29;;;;;;;4.18;3.47;;;;;;;9.77;74.24;101794.47;4990043;28;20018;-72
2022/03/14 03:22:54;;;;;;;4.13;3.72;;;;;;;9.76;74.82;101798.03;4993575;28;20038;-69
2022/03/14 03:25:20;;;;;;;4.18;3.78;;;;;;;9.71;75.85;101803.56;4989763;28;20159;-71
2022/03/14 03:27:45;;;;;;;5.25;3.78;;;;;;;9.67;76.37;101806.44;4989774;28;20087;-71
2022/03/14 03:30:11;;;;;;;3.80;3.50;;;;;;;9.63;76.99;101818.06;5001616;28;20030;-71
2022/03/14 03:32:36;;;;;;;4.40;3.67;;;;;;;9.61;76.98;101826.03;4991563;28;20038;-71
2022/03/14 03:35:02;;;;;;;4.38;3.90;;;;;;;9.59;76.90;101837.50;4989060;28;20069;-71
2022/03/14 03:37:27;;;;;;;5.18;4.25;;;;;;;9.53;77.10;101838.69;4995697;28;20161;-71
2022/03/14 03:39:56;;;;;;;4.75;4.03;;;;;;;9.50;76.75;101849.38;4988691;28;20026;-71
2022/03/14 03:42:21;;;;;;;4.38;3.97;;;;;;;9.48;76.69;101855.63;4989370;28;20022;-71
2022/03/14 03:44:46;;;;;;;4.97;4.32;;;;;;;9.46;76.68;101863.59;5000658;28;20034;-71
2022/03/14 03:47:12;;;;;;;4.72;4.30;;;;;;;9.45;76.55;101859.28;4991083;28;20033;-71
2022/03/14 03:49:38;;;;;;;4.95;4.32;;;;;;;9.43;76.96;101875.13;4993512;28;20117;-71
2022/03/14 03:52:04;;;;;;;5.28;4.28;;;;;;;9.38;77.03;101871.88;4989208;28;20053;-71
2022/03/14 03:54:30;;;;;;;4.80;4.30;;;;;;;9.35;77.15;101879.09;4997134;28;20034;-71
2022/03/14 03:56:55;;;;;;;6.03;4.70;;;;;;;9.34;77.61;101882.63;5014072;28;20029;-71
2022/03/14 03:59:21;;;;;;;5.15;4.43;;;;;;;9.28;78.20;101889.06;4997135;28;20046;-71
2022/03/14 04:01:47;;;;;;;5.53;4.97;;;;;;;9.25;78.13;101891.84;4988116;28;20044;-71
2022/03/14 04:04:12;;;;;;;6.95;5.07;;;;;;;9.22;79.53;101892.00;4988941;28;20030;-71
2022/03/14 04:06:39;;;;;;;8.27;5.40;;;;;;;9.18;79.94;101893.06;4989448;28;20032;-71
2022/03/14 04:09:06;;;;;;;6.55;5.13;;;;;;;9.16;80.16;101908.06;4988845;28;20054;-71
2022/03/14 04:11:31;;;;;;;6.50;5.20;;;;;;;9.14;80.60;101909.06;4988725;28;20037;-71
2022/03/14 04:13:59;;;;;;;5.93;5.05;;;;;;;9.09;81.05;101906.66;4989335;28;20034;-71
2022/03/14 04:16:26;;;;;;;6.20;5.45;;;;;;;9.04;81.33;101916.56;4989061;28;20084;-71
2022/03/14 04:18:52;;;;;;;7.18;5.75;;;;;;;9.02;81.24;101924.50;4988390;28;20022;-71
2022/03/14 04:21:17;;;;;;;6.10;5.50;;;;;;;9.00;81.78;101922.88;4988837;28;20045;-71
2022/03/14 04:23:43;;;;;;;6.10;5.50;;;;;;;9.00;81.27;101928.16;4990112;28;20060;-71
2022/03/14 04:26:09;;;;;;;6.00;5.32;;;;;;;8.96;81.56;101931.84;5004605;28;20044;-71
2022/03/14 04:28:36;;;;;;;7.05;5.80;;;;;;;8.94;81.39;101933.69;4993160;28;20070;-71
2022/03/14 04:31:04;;;;;;;7.00;5.90;;;;;;;8.93;81.35;101942.50;4992689;28;20117;-71
2022/03/14 04:33:30;;;;;;;6.93;5.93;;;;;;;8.88;81.86;101949.75;4993333;28;20023;-71
2022/03/14 04:35:57;;;;;;;7.18;5.80;;;;;;;8.88;81.85;101947.13;5000083;28;20074;-71
2022/03/14 04:38:22;;;;;;;7.30;5.90;;;;;;;8.85;81.88;101952.53;4993297;28;20060;-71
2022/03/14 04:40:48;;;;;;;8.15;6.20;;;;;;;8.81;82.24;101950.97;4992870;28;20054;-71
2022/03/14 04:43:13;;;;;;;7.47;6.65;;;;;;;8.80;82.27;101963.22;4992663;28;20022;-71
2022/03/14 04:45:40;;;;;;;7.22;6.28;;;;;;;8.78;81.99;101955.44;5003182;28;20085;-71
2022/03/14 04:48:06;;;;;;;7.85;6.95;;;;;;;8.73;82.50;101957.44;5000339;28;20509;-71
2022/03/14 04:50:32;;;;;;;8.07;6.75;;;;;;;8.72;81.75;101957.50;4991722;28;20041;-71
2022/03/14 04:52:58;;;;;;;8.57;7.03;;;;;;;8.71;82.06;101964.53;4998777;28;20068;-71
2022/03/14 04:55:24;;;;;;;7.13;6.43;;;;;;;8.68;81.89;101959.44;4992499;28;20450;-71
2022/03/14 04:57:49;;;;;;;7.43;6.72;;;;;;;8.68;82.21;101974.31;4991721;28;20038;-71
2022/03/14 05:00:15;;;;;;;8.32;7.20;;;;;;;8.67;82.01;101973.47;4989748;28;20037;-71
2022/03/14 05:02:40;;;;;;;9.23;7.05;;;;;;;8.66;81.81;101977.03;4998284;28;20041;-71
2022/03/14 05:05:11;;;;;;;9.32;7.15;;;;;;;8.67;82.06;101988.38;4995817;28;20474;-71
2022/03/14 05:07:37;;;;;;;8.55;7.10;;;;;;;8.63;82.23;101992.91;4990325;28;20449;-71
2022/03/14 05:10:06;;;;;;;9.73;7.57;;;;;;;8.62;82.28;102004.31;4998897;28;20478;-71
2022/03/14 05:12:32;;;;;;;8.15;7.35;;;;;;;8.61;82.39;102009.66;4991505;28;20044;-71
2022/03/14 05:14:57;;;;;;;9.43;7.65;;;;;;;8.60;82.39;102008.78;4991720;28;20030;-71
2022/03/14 05:17:22;;;;;;;12.35;7.80;;;;;;;8.58;82.48;102015.03;4991819;28;20026;-71
2022/03/14 05:19:48;;;;;;;9.13;7.75;;;;;;;8.58;81.76;102021.13;4991101;28;20022;-72
2022/03/14 05:22:13;;;;;;;10.52;7.78;;;;;;;8.55;82.71;102018.66;4990929;28;20049;-71
2022/03/14 05:24:38;;;;;;;8.98;7.60;;;;;;;8.57;82.09;102024.69;4991150;28;20080;-71
2022/03/14 05:27:04;;;;;;;12.05;8.70;;;;;;;8.54;82.38;102026.59;5002005;28;20415;-71
2022/03/14 05:29:29;;;;;;;10.07;8.82;;;;;;;8.55;82.61;102023.91;5001894;28;20026;-71
2022/03/14 05:31:54;;;;;;;12.02;9.45;;;;;;;8.55;82.68;102030.94;4994023;28;20029;-71
2022/03/14 05:34:20;;;;;;;13.32;10.23;;;;;;;8.53;82.78;102044.13;4992179;28;20023;-71
2022/03/14 05:36:45;;;;;;;11.95;10.20;;;;;;;8.54;82.32;102035.31;4991185;28;20073;-71
2022/03/14 05:39:11;;;;;;;12.48;10.43;;;;;;;8.52;82.80;102047.66;4998094;28;20031;-71
2022/03/14 05:41:36;;;;;;;13.30;10.40;;;;;;;8.53;82.64;102048.50;4992592;28;20037;-72
2022/03/14 05:44:02;;;;;;;15.18;11.38;;;;;;;8.52;82.56;102057.31;4996599;28;20450;-71
2022/03/14 05:46:28;;;;;;;15.68;11.55;;;;;;;8.51;82.78;102061.69;4997002;28;20105;-71
2022/03/14 05:48:53;;;;;;;15.50;11.55;;;;;;;8.51;83.10;102066.94;4991827;28;20471;-71
2022/03/14 05:51:19;;;;;;;16.00;11.98;;;;;;;8.51;82.80;102066.94;4998250;28;20540;-71
2022/03/14 05:53:44;;;;;;;16.05;12.55;;;;;;;8.52;82.78;102073.03;4996724;28;20390;-71
2022/03/14 05:56:09;;;;;;;16.38;11.93;;;;;;;8.52;82.95;102070.41;4994660;28;20034;-71
2022/03/14 05:58:34;;;;;;;18.00;12.05;;;;;;;8.51;82.96;102080.06;5004975;28;20080;-71
2022/03/14 06:01:03;;;;;;;18.13;13.63;;;;;;;8.51;83.15;102093.16;4991489;28;20030;-71
2022/03/14 06:03:28;;;;;;;17.23;13.10;;;;;;;8.50;82.90;102082.75;4991875;28;20030;-71
2022/03/14 06:05:53;;;;;;;17.42;13.20;;;;;;;8.53;83.03;102095.72;4990872;28;20512;-71
2022/03/14 06:08:19;;;;;;;20.92;13.40;;;;;;;8.52;82.83;102092.25;4989580;28;20034;-71
2022/03/14 06:10:46;;;;;;;18.55;13.73;;;;;;;8.52;83.07;102096.66;4990717;28;20041;-71
2022/03/14 06:13:13;;;;;;;16.42;13.40;;;;;;;8.52;83.07;102110.59;4990508;28;20479;-71
2022/03/14 06:15:39;;;;;;;17.05;14.20;;;;;;;8.55;82.68;102109.63;4997177;28;20084;-71
2022/03/14 06:18:05;;;;;;;19.17;14.27;;;;;;;8.53;83.07;102109.69;4990173;28;20030;-71
2022/03/14 06:20:30;;;;;;;17.17;13.90;;;;;;;8.54;83.13;102119.25;4994309;28;20034;-71
2022/03/14 06:22:55;;;;;;;19.67;14.30;;;;;;;8.53;83.15;102117.56;4989982;28;20149;-71
2022/03/14 06:25:21;;;;;;;20.60;14.23;;;;;;;8.52;83.55;102110.59;4990880;28;20421;-71
2022/03/14 06:27:46;;;;;;;16.67;14.65;;;;;;;8.52;83.05;102126.34;5005702;28;20038;-72
2022/03/14 06:30:13;;;;;;;19.70;14.68;;;;;;;8.51;83.13;102137.75;4992815;28;20081;-71
2022/03/14 06:32:40;;;;;;;17.73;14.32;;;;;;;8.51;83.24;102140.38;4993758;28;20084;-71
2022/03/14 06:35:11;;;;;;;18.08;14.63;;;;;;;8.53;83.22;102143.78;4990424;28;20029;-71
2022/03/14 06:37:37;;;;;;;22.25;15.40;;;;;;;8.54;83.11;102149.88;4998917;28;20494;-71
2022/03/14 06:40:03;;;;;;;19.77;14.88;;;;;;;8.54;83.44;102149.88;4990690;28;20368;-71
2022/03/14 06:42:29;;;;;;;21.85;15.80;;;;;;;8.53;83.69;102148.19;4990267;28;20091;-71
2022/03/14 06:45:00;;;;;;;24.13;16.13;;;;;;;8.54;83.53;102155.13;4994746;28;20053;-71
2022/03/14 06:47:25;;;;;;;19.52;15.23;;;;;;;8.54;83.45;102153.38;4996677;28;20036;-72
2022/03/14 06:49:50;;;;;;;22.25;15.80;;;;;;;8.56;83.27;102159.38;4989873;28;20027;-72
2022/03/14 06:52:16;;;;;;;22.83;15.48;;;;;;;8.56;83.20;102159.38;4991980;28;20515;-72
2022/03/14 06:54:42;;;;;;;23.02;15.98;;;;;;;8.56;83.59;102163.78;5005188;28;20152;-72
2022/03/14 06:57:09;;;;;;;22.13;15.85;;;;;;;8.57;83.39;102165.47;4989127;28;20033;-72
2022/03/14 06:59:35;;;;;;;24.77;15.98;;;;;;;8.56;83.43;102167.25;4989348;28;20030;-72
2022/03/14 07:02:01;;;;;;;18.88;14.98;;;;;;;8.57;83.44;102176.84;5002120;28;20022;-72
2022/03/14 07:04:27;;;;;;;21.52;15.90;;;;;;;8.59;83.04;102180.25;4994115;28;20027;-72
2022/03/14 07:06:52;;;;;;;22.35;15.73;;;;;;;8.60;83.13;102181.94;4993562;28;20079;-72
2022/03/14 07:09:18;;;;;;;22.63;15.80;;;;;;;8.62;82.76;102180.09;4994074;28;20018;-72
2022/03/14 07:11:43;;;;;;;21.90;15.52;;;;;;;8.63;82.86;102189.69;4995961;28;20053;-72
2022/03/14 07:14:09;;;;;;;22.40;15.45;;;;;;;8.65;82.89;102193.06;4988386;28;20402;-72
2022/03/14 07:16:34;;;;;;;22.67;15.77;;;;;;;8.67;83.16;102193.88;4989505;28;20038;-71
2022/03/14 07:18:59;;;;;;;21.00;15.90;;;;;;;8.69;82.93;102193.78;4987741;28;20022;-71
2022/03/14 07:21:28;;;;;;;22.27;15.30;;;;;;;8.70;82.32;102188.47;4996415;28;20042;-71
2022/03/14 07:23:55;;;;;;;22.83;15.75;;;;;;;8.72;82.23;102196.28;4989745;28;20068;-71
2022/03/14 07:26:20;;;;;;;21.77;15.50;;;;;;;8.71;82.54;102192.81;4988193;28;20451;-71
2022/03/14 07:28:47;;;;;;;21.13;15.18;;;;;;;8.75;82.53;102202.25;4989279;28;20550;-72
2022/03/14 07:31:12;;;;;;;21.60;14.93;;;;;;;8.76;82.36;102209.19;4989225;28;20054;-72
2022/03/14 07:33:38;;;;;;;20.40;15.65;;;;;;;8.76;82.15;102206.56;5001883;28;20054;-72
2022/03/14 07:36:03;;;;;;;21.55;15.40;;;;;;;8.78;82.14;102196.84;4997052;28;20073;-72
2022/03/14 07:38:29;;;;;;;22.13;15.70;;;;;;;8.79;82.18;102203.81;4989590;28;20316;-73
2022/03/14 07:40:54;;;;;;;21.23;16.05;;;;;;;8.82;81.89;102202.00;4988108;28;20035;-71
2022/03/14 07:43:19;;;;;;;22.08;16.13;;;;;;;8.85;82.31;102207.09;4992376;28;20033;-71
2022/03/14 07:45:45;;;;;;;21.20;15.52;;;;;;;8.86;81.71;102212.28;4997910;28;20026;-71
2022/03/14 07:48:10;;;;;;;25.02;15.70;;;;;;;8.89;81.67;102209.50;4999671;28;20030;-71
2022/03/14 07:50:35;;;;;;;19.75;15.48;;;;;;;8.92;81.42;102217.25;4992988;28;20045;-71
2022/03/14 07:53:01;;;;;;;22.13;16.45;;;;;;;8.95;81.37;102226.75;4994501;28;20216;-71
2022/03/14 07:55:26;;;;;;;26.13;15.90;;;;;;;8.98;81.66;102222.22;4990145;28;20022;-72
2022/03/14 07:57:52;;;;;;;22.60;15.60;;;;;;;9.01;81.19;102229.94;4991764;28;20026;-71
2022/03/14 08:00:19;;;;;;;23.48;16.63;;;;;;;9.04;80.98;102229.81;4991960;28;20041;-72
2022/03/14 08:02:46;;;;;;;24.58;16.38;;;;;;;9.08;81.22;102241.03;4993139;28;20141;-72
2022/03/14 08:05:20;;;;;;;19.77;15.95;;;;;;;9.11;81.11;102240.88;5001810;28;20038;-71
2022/03/14 08:07:46;;;;;;;21.80;17.20;;;;;;;9.12;81.18;102242.59;5002753;28;20030;-72
2022/03/14 08:10:16;;;;;;;23.77;16.65;;;;;;;9.13;80.74;102249.53;5006693;28;20105;-72
2022/03/14 08:12:48;;;;;;;23.48;15.73;;;;;;;9.15;80.81;102247.69;4992683;28;20045;-72
2022/03/14 08:15:33;;;;;;;25.75;16.65;;;;;;;9.19;80.32;102256.28;4999034;28;20033;-72
2022/03/14 08:18:02;;;;;;;25.13;17.70;;;;;;;9.19;80.65;102259.75;5005570;28;20112;-72
2022/03/14 08:20:28;;;;;;;25.48;16.55;;;;;;;9.20;80.57;102265.88;5003965;28;20018;-73
2022/03/14 08:22:58;;;;;;;26.08;15.98;;;;;;;9.20;79.86;102271.97;5008172;28;20492;-73
2022/03/14 08:25:24;;;;;;;25.35;15.80;;;;;;;9.21;80.10;102270.22;5008450;28;20040;-73
2022/03/14 08:27:50;;;;;;;22.27;15.75;;;;;;;9.22;80.14;102278.03;5009325;28;20029;-72
2022/03/14 08:30:16;;;;;;;23.48;15.90;;;;;;;9.22;80.27;102274.56;5010265;28;21571;-73
2022/03/14 08:32:43;;;;;;;24.42;15.40;;;;;;;9.23;80.14;102273.63;5009898;28;20046;-72
2022/03/14 08:35:09;;;;;;;28.75;15.43;;;;;;;9.25;79.89;102270.00;4990924;28;20039;-72
2022/03/14 08:37:36;;;;;;;20.90;14.70;;;;;;;9.28;79.99;102288.25;4993787;28;20054;-72
2022/03/14 08:40:02;;;;;;;24.85;14.45;;;;;;;9.30;80.04;102283.78;5006975;28;20042;-72
2022/03/14 08:42:27;;;;;;;27.27;15.23;;;;;;;9.34;80.03;102289.75;5006926;28;20037;-72
2022/03/14 08:44:53;;;;;;;23.35;14.70;;;;;;;9.38;79.76;102288.69;5010330;28;20030;-72
2022/03/14 08:47:18;;;;;;;27.52;15.43;;;;;;;9.40;79.89;102299.97;5006858;28;20731;-72
2022/03/14 08:49:43;;;;;;;21.38;13.88;;;;;;;9.45;79.42;102307.63;5005988;28;20033;-72
2022/03/14 08:52:09;;;;;;;18.67;13.50;;;;;;;9.48;78.77;102307.50;5006531;28;20375;-72
2022/03/14 08:54:34;;;;;;;16.95;13.10;;;;;;;9.50;78.94;102316.16;4992943;28;20037;-72
2022/03/14 08:56:59;;;;;;;18.02;12.68;;;;;;;9.52;78.55;102319.56;5007423;28;20028;-72
2022/03/14 08:59:25;;;;;;;21.67;14.10;;;;;;;9.53;78.53;102321.25;5010116;28;20080;-72
2022/03/14 09:01:50;;;;;;;23.10;13.85;;;;;;;9.56;78.50;102321.13;5008098;28;20018;-72
2022/03/14 09:04:16;;;;;;;21.38;13.00;;;;;;;9.58;78.86;102327.16;5006434;28;20088;-72
2022/03/14 09:06:42;;;;;;;18.98;12.55;;;;;;;9.63;78.70;102338.34;5009060;28;20049;-72
2022/03/14 09:09:07;;;;;;;20.65;12.55;;;;;;;9.66;78.60;102339.03;5011134;28;20401;-72
2022/03/14 09:11:32;;;;;;;18.60;12.63;;;;;;;9.72;78.09;102343.16;5006436;28;20153;-72
2022/03/14 09:13:58;;;;;;;20.10;12.23;;;;;;;9.78;78.74;102342.88;5008939;28;20091;-72
2022/03/14 09:16:26;;;;;;;17.63;12.60;;;;;;;9.84;78.27;102349.63;5008950;28;20445;-72
2022/03/14 09:18:52;;;;;;;20.10;12.55;;;;;;;9.87;77.63;102345.06;5005122;28;20018;-72
2022/03/14 09:21:19;;;;;;;18.60;13.10;;;;;;;9.93;77.54;102351.81;5009090;28;20025;-72
2022/03/14 09:23:44;;;;;;;17.90;12.25;;;;;;;9.99;77.40;102362.88;5006065;28;20030;-72
2022/03/14 09:26:10;;;;;;;15.32;11.65;;;;;;;10.05;76.78;102354.72;5008496;28;20109;-73
2022/03/14 09:28:36;;;;;;;18.50;12.23;;;;;;;10.13;77.50;102353.50;5006867;28;20073;-73
2022/03/14 09:31:03;;;;;;;19.13;11.98;;;;;;;10.20;77.13;102354.91;5007220;28;20442;-73
2022/03/14 09:33:28;;;;;;;17.15;11.32;;;;;;;10.26;75.41;102355.50;5009202;28;20482;-73
2022/03/14 09:35:53;;;;;;;18.13;10.77;;;;;;;10.32;75.64;102372.75;5005520;28;20056;-73
2022/03/14 09:38:19;;;;;;;15.25;9.55;;;;;;;10.35;74.40;102370.81;5006271;28;20048;-73
2022/03/14 09:40:45;;;;;;;16.42;9.63;;;;;;;10.39;73.99;102373.31;5009830;28;20022;-73
2022/03/14 09:43:15;;;;;;;16.77;9.60;;;;;;;10.41;74.26;102374.13;5005091;28;20032;-73
2022/03/14 09:45:45;;;;;;;16.27;10.60;;;;;;;10.45;74.40;102383.56;5003427;28;20046;-73
2022/03/14 09:48:14;;;;;;;14.45;9.98;;;;;;;10.49;74.05;102385.97;5002562;28;20034;-73
2022/03/14 09:50:40;;;;;;;17.10;9.90;;;;;;;10.58;74.31;102392.56;5006658;28;20037;-73
2022/03/14 09:53:12;;;;;;;16.15;9.90;;;;;;;10.66;74.45;102399.13;4992725;28;20022;-73
2022/03/14 09:55:42;;;;;;;14.55;10.07;;;;;;;10.71;73.27;102408.59;4998341;28;20394;-73
2022/03/14 09:58:11;;;;;;;17.48;10.13;;;;;;;10.77;73.65;102413.53;4994569;28;20025;-73
2022/03/14 10:00:37;;;;;;;14.70;9.45;;;;;;;10.83;73.49;102414.13;4996883;28;20046;-74
2022/03/14 10:03:03;;;;;;;16.58;9.90;;;;;;;10.90;73.56;102425.19;4990177;28;20030;-73
2022/03/14 10:05:29;;;;;;;17.13;10.32;;;;;;;10.95;72.82;102420.53;4991694;28;20033;-72
2022/03/14 10:07:54;;;;;;;14.60;9.75;;;;;;;11.01;73.10;102427.28;4990713;28;20030;-72
2022/03/14 10:10:19;;;;;;;16.08;9.48;;;;;;;10.99;70.95;102425.56;4991423;28;20332;-73
2022/03/14 10:12:52;;;;;;;15.27;9.48;;;;;;;11.04;71.92;102422.69;4999771;28;20409;-72
2022/03/14 10:15:18;;;;;;;14.63;7.85;;;;;;;11.09;71.05;102425.09;4996537;28;20056;-73
2022/03/14 10:17:43;;;;;;;12.75;6.85;;;;;;;11.13;70.24;102422.22;4992545;28;20529;-73
2022/03/14 10:20:09;;;;;;;13.68;8.50;;;;;;;11.18;70.22;102430.75;4988785;28;20044;-73
2022/03/14 10:22:39;;;;;;;15.50;8.60;;;;;;;11.20;69.41;102433.31;4990845;28;20038;-73
2022/03/14 10:25:11;;;;;;;12.05;8.57;;;;;;;11.19;68.96;102437.72;4990368;28;20481;-73
2022/03/14 10:27:38;;;;;;;13.98;8.63;;;;;;;11.21;69.32;102443.78;4994969;28;20092;-72
2022/03/14 10:30:05;;;;;;;15.45;9.63;;;;;;;11.23;68.92;102449.84;4998564;28;20052;-72
2022/03/14 10:32:31;;;;;;;14.82;10.77;;;;;;;11.21;68.54;102446.44;5010520;28;20073;-72
2022/03/14 10:35:03;;;;;;;14.57;11.77;;;;;;;11.21;69.08;102456.97;4986197;28;20057;-71
2022/03/14 10:37:29;;;;;;;17.17;12.43;;;;;;;11.18;68.31;102453.59;5007060;28;20069;-72
2022/03/14 10:40:00;;;;;;;15.77;12.32;;;;;;;11.18;68.60;102451.81;4999620;28;20025;-72
2022/03/14 10:42:26;;;;;;;15.48;12.65;;;;;;;11.22;69.15;102461.31;4995789;28;20092;-72
2022/03/14 10:44:53;;;;;;;18.35;11.75;;;;;;;11.20;68.83;102465.75;4994296;28;20026;-71
2022/03/14 10:47:20;;;;;;;16.42;11.40;;;;;;;11.25;69.24;102462.94;5000269;28;20048;-72
2022/03/14 10:49:45;;;;;;;12.57;10.85;;;;;;;11.35;68.80;102468.56;4997320;28;20185;-72
2022/03/14 10:52:14;;;;;;;12.02;8.90;;;;;;;11.34;68.19;102477.41;4999960;28;20101;-71
2022/03/14 10:54:43;;;;;;;14.65;9.20;;;;;;;11.44;68.70;102482.13;4997836;28;20030;-72
2022/03/14 10:57:14;;;;;;;15.52;8.57;;;;;;;11.62;68.65;102482.97;4994647;28;20026;-72
2022/03/14 10:59:41;;;;;;;10.48;7.50;;;;;;;11.63;66.84;102484.69;4993763;28;20022;-72
2022/03/14 11:02:09;;;;;;;9.80;7.72;;;;;;;11.72;66.47;102484.19;4997382;28;20033;-72
2022/03/14 11:04:49;;;;;;;11.82;7.20;;;;;;;11.79;66.56;102485.59;4996185;28;20030;-72
2022/03/14 11:07:16;;;;;;;14.20;7.20;;;;;;;11.87;65.94;102482.56;4993315;28;20089;-72
2022/03/14 11:09:52;;;;;;;11.00;6.65;;;;;;;11.97;66.10;102477.63;4999859;28;20026;-73
2022/03/14 11:12:20;;;;;;;13.00;6.88;;;;;;;12.15;65.76;102481.94;5000919;28;20470;-73
2022/03/14 11:15:03;;;;;;;11.55;6.68;;;;;;;12.37;65.91;102478.94;4997585;28;20387;-73
2022/03/14 11:17:30;;;;;;;11.38;5.88;;;;;;;12.62;64.48;102492.50;5008801;28;20395;-73